Terre Haute, IN (47805)

10:53 AM EDT on July 24, 2016 (GMT -0400)
Sandcut/North Terre Haute | | Change Station
Active Advisory: Heat Advisory

Elev 590 ft 39.56 °N, 87.30 °W | Updated 5 seconds ago

Partly Cloudy
Partly Cloudy
84.7 °F
Feels Like 96 °F
N
0.0
Wind Variable Wind from SW
Gusts 1.0 mph

Today
High -- | Low -- °F
--% Chance of Precip.
Yesterday
High -- | Low -- °F
Precip. -- in
Pressure 29.98 in
Visibility 7.0 miles
Clouds Few 3000 ft
Heat Index 96 °F
Dew Point 78 °F
Humidity 81%
Rainfall 0.00 in
Snow Depth Not available.
6:42 AM 9:08 PM
Waning Gibbous, 75% visible
METAR KHUF 241353Z 17004KT 7SM FEW030 28/24 A2999 RMK AO2 SLP150 T02830244
Pressure 29.98 in
Visibility 7.0 miles
Clouds Few 3000 ft
Heat Index 96 °F
Dew Point 78 °F
Humidity 81%
Rainfall 0.00 in
Snow Depth Not available.
6:42 AM 9:08 PM
Waning Gibbous, 75% visible
METAR KHUF 241353Z 17004KT 7SM FEW030 28/24 A2999 RMK AO2 SLP150 T02830244

10-Day Weather Forecast

Almanac

Astronomy

Jul. 24, 2016 Rise Set
Actual Time
Civil Twilight
Nautical Twilight
Astronomical Twilight
Moon
Length of Visible Light
Length of Day
Tomorrow will be .
, % of the Moon is Illuminated

Today's Extremes

State Highs State Lows

Community

WunderPhotos

Upload Photos

1,927,071 photos uploaded!

WunderBlog® & News

Nearby

Air Quality

  Air Quality AQ Index Pollutant
Not available.

Snow Depth

Station Depth Elevation

Earthquake Activity

City Distance Mag. Time & Date
Minimum magnitude displayed is 2.5.

Coastal Water Temperatures

Place Temperature

Stations

Nearby Weather Stations

Station Location Temp. Windchill Dew Point Humidity Wind Precip. Elev Updated Type
                   

Watches & Warnings

Heat Advisory
Issued: 9:58 AM EDT Jul. 24, 2016 – National Weather Service

... Heat advisory remains in effect until 8 PM EDT this evening...

* temperature... maximums will reach the lower to middle 90s while
dewpoint temperatures reach the middle 70s.

* Heat index... heat index values will approach 105 degrees this
afternoon.

* Impacts... there is a risk for heat related illnesses with
prolonged outdoor exposure or no access to air conditioning.

Precautionary/preparedness actions...

A heat advisory means that a period of hot temperatures is
expected. The combination of hot temperatures and high humidity
will combine to create a situation in which heat illnesses are
possible. Drink plenty of fluids... stay in an air-conditioned
room... stay out of the sun... and check up on relatives and
neighbors.